createdAt,value
2022-08-31T00:01:37.741Z,100093.63
2022-08-31T00:04:06.113Z,100092.06
2022-08-31T00:06:35.945Z,100092.06
2022-08-31T00:09:05.843Z,100085.84
2022-08-31T00:11:36.256Z,100097.56
2022-08-31T00:14:13.389Z,100092.06
2022-08-31T00:16:44.525Z,100091.75
2022-08-31T00:19:12.557Z,100094.47
2022-08-31T00:21:40.464Z,100094.91
2022-08-31T00:24:08.595Z,100088.66
2022-08-31T00:26:36.850Z,100082.75
2022-08-31T00:29:05.633Z,100085.03
2022-08-31T00:31:33.305Z,100081.53
2022-08-31T00:34:00.925Z,100082.84
2022-08-31T00:36:28.701Z,100086.78
2022-08-31T00:38:57.206Z,100083.72
2022-08-31T00:41:30.401Z,100085.56
2022-08-31T00:44:03.182Z,100087.88
2022-08-31T00:46:42.186Z,100088.66
2022-08-31T00:49:19.351Z,100094.56
2022-08-31T00:52:02.275Z,100095.09
2022-08-31T00:54:44.370Z,100086.19
2022-08-31T00:57:13.605Z,100086.31
2022-08-31T00:59:44.565Z,100095.38
2022-08-31T01:02:12.185Z,100093.50
2022-08-31T01:04:40.127Z,100083.06
2022-08-31T01:07:08.937Z,100092.13
2022-08-31T01:09:41.329Z,100088.28
2022-08-31T01:12:24.353Z,100087.59
2022-08-31T01:14:52.375Z,100087.69
2022-08-31T01:17:22.166Z,100087.34
2022-08-31T01:20:12.513Z,100084.69
2022-08-31T01:22:56.184Z,100093.31
2022-08-31T01:25:24.488Z,100095.06
2022-08-31T01:28:04.727Z,100092.09
2022-08-31T01:30:33.295Z,100092.50
2022-08-31T01:33:01.331Z,100081.19
2022-08-31T01:35:29.737Z,100089.84
2022-08-31T01:37:58.839Z,100086.41
2022-08-31T01:40:38.003Z,100084.13
2022-08-31T01:43:05.902Z,100075.22
2022-08-31T01:45:33.383Z,100074.91
2022-08-31T01:48:02.108Z,100073.00
2022-08-31T01:50:30.208Z,100071.47
2022-08-31T01:52:58.857Z,100076.16
2022-08-31T01:55:27.120Z,100078.22
2022-08-31T01:57:58.846Z,100081.03
2022-08-31T02:01:03.145Z,100082.72
2022-08-31T02:03:43.938Z,100087.06
2022-08-31T02:06:13.887Z,100089.03
2022-08-31T02:08:41.913Z,100089.53
2022-08-31T02:11:09.794Z,100086.81
2022-08-31T02:13:37.805Z,100081.00
2022-08-31T02:16:06.517Z,100083.81
2022-08-31T02:18:35.998Z,100084.56
2022-08-31T02:21:05.719Z,100086.13
2022-08-31T02:23:33.519Z,100090.03
2022-08-31T02:26:01.496Z,100087.31
2022-08-31T02:28:29.421Z,100080.28
2022-08-31T02:30:57.156Z,100084.56
2022-08-31T02:33:25.612Z,100081.16
2022-08-31T02:35:53.850Z,100077.72
2022-08-31T02:38:24.978Z,100073.81
2022-08-31T02:40:54.643Z,100078.94
2022-08-31T02:43:24.559Z,100080.13
2022-08-31T02:45:54.653Z,100073.97
2022-08-31T02:48:27.939Z,100084.13
2022-08-31T02:51:02.617Z,100085.34
2022-08-31T02:53:30.375Z,100085.75
2022-08-31T02:55:57.964Z,100076.41
2022-08-31T02:58:25.533Z,100082.69
2022-08-31T03:00:54.187Z,100085.41
2022-08-31T03:03:22.063Z,100087.44
2022-08-31T03:05:50.446Z,100086.25
2022-08-31T03:08:18.810Z,100083.84
2022-08-31T03:10:49.680Z,100078.72
2022-08-31T03:13:18.487Z,100070.78
2022-08-31T03:15:46.584Z,100079.28
2022-08-31T03:18:17.165Z,100078.47
2022-08-31T03:20:44.851Z,100070.22
2022-08-31T03:23:12.850Z,100068.25
2022-08-31T03:25:41.105Z,100073.72
2022-08-31T03:28:08.971Z,100076.81
2022-08-31T03:30:41.476Z,100076.72
2022-08-31T03:33:11.908Z,100084.41
2022-08-31T03:35:44.081Z,100080.06
2022-08-31T03:38:15.962Z,100077.59
2022-08-31T03:40:45.153Z,100080.69
2022-08-31T03:43:14.785Z,100074.78
2022-08-31T03:45:44.162Z,100088.81
2022-08-31T03:48:13.283Z,100086.44
2022-08-31T03:50:44.229Z,100086.88
2022-08-31T03:53:23.154Z,100087.19
2022-08-31T03:56:01.731Z,100086.78
2022-08-31T03:58:32.658Z,100089.50
2022-08-31T04:01:01.576Z,100104.72
2022-08-31T04:04:01.992Z,100090.28
2022-08-31T04:07:01.424Z,100091.91
2022-08-31T04:09:49.338Z,100095.91
2022-08-31T04:12:43.076Z,100090.59
2022-08-31T04:15:30.818Z,100096.06
2022-08-31T04:18:30.971Z,100092.94
2022-08-31T04:20:58.746Z,100100.06
2022-08-31T04:23:29.436Z,100102.38
2022-08-31T04:25:58.950Z,100102.38
2022-08-31T04:28:27.061Z,100092.94
2022-08-31T04:30:56.104Z,100097.66
2022-08-31T04:33:24.018Z,100099.22
2022-08-31T04:35:52.452Z,100096.06
2022-08-31T04:38:20.286Z,100098.38
2022-08-31T04:40:48.483Z,100107.66
2022-08-31T04:43:20.170Z,100105.31
2022-08-31T04:45:52.145Z,100107.19
2022-08-31T04:48:19.721Z,100111.47
2022-08-31T04:50:50.676Z,100111.47
2022-08-31T04:53:18.670Z,100121.53
2022-08-31T04:55:46.294Z,100117.63
2022-08-31T04:58:14.256Z,100106.00
2022-08-31T05:00:45.146Z,100116.94
2022-08-31T05:03:15.992Z,100113.84
2022-08-31T05:05:47.090Z,100114.22
2022-08-31T05:08:14.988Z,100118.81
2022-08-31T05:10:44.561Z,100109.75
2022-08-31T05:13:12.775Z,100108.91
2022-08-31T05:15:43.728Z,100108.91
2022-08-31T05:18:14.950Z,100111.31
2022-08-31T05:20:49.533Z,100111.31
2022-08-31T05:23:19.082Z,100106.16
2022-08-31T05:25:47.102Z,100102.94
2022-08-31T05:28:17.835Z,100114.91
2022-08-31T05:30:45.712Z,100112.84
2022-08-31T05:33:29.467Z,100114.72
2022-08-31T05:36:00.992Z,100122.09
2022-08-31T05:38:28.859Z,100112.66
2022-08-31T05:40:58.736Z,100125.16
2022-08-31T05:43:27.709Z,100127.03
2022-08-31T05:45:58.699Z,100117.44
2022-08-31T05:48:29.878Z,100125.72
2022-08-31T05:51:02.791Z,100123.16
2022-08-31T05:53:31.805Z,100128.50
2022-08-31T05:56:10.631Z,100133.00
2022-08-31T05:58:40.855Z,100138.28
2022-08-31T06:01:30.843Z,100136.56
2022-08-31T06:04:08.833Z,100133.28
2022-08-31T06:06:37.370Z,100135.50
2022-08-31T06:09:07.736Z,100140.13
2022-08-31T06:11:38.372Z,100137.63
2022-08-31T06:14:06.625Z,100144.88
2022-08-31T06:16:36.613Z,100137.13
2022-08-31T06:19:07.319Z,100137.78
2022-08-31T06:21:49.766Z,100136.59
2022-08-31T06:24:22.637Z,100139.34
2022-08-31T06:26:58.568Z,100136.91
2022-08-31T06:29:34.798Z,100137.28
2022-08-31T06:32:11.098Z,100139.16
2022-08-31T06:34:50.148Z,100137.97
2022-08-31T06:37:40.930Z,100141.03
2022-08-31T06:40:40.680Z,100138.63
2022-08-31T06:43:27.740Z,100137.19
2022-08-31T06:46:00.736Z,100132.47
2022-08-31T06:48:48.401Z,100135.53
2022-08-31T06:51:16.589Z,100136.75
2022-08-31T06:53:45.407Z,100136.75
2022-08-31T06:56:35.145Z,100144.97
2022-08-31T06:59:28.218Z,100140.69
2022-08-31T07:02:15.307Z,100141.91
2022-08-31T07:04:43.123Z,100144.97
2022-08-31T07:07:11.646Z,100146.84
2022-08-31T07:09:42.132Z,100137.41
2022-08-31T07:12:11.249Z,100142.75
2022-08-31T07:14:38.948Z,100140.09
2022-08-31T07:17:08.391Z,100141.75
2022-08-31T07:19:36.026Z,100149.63
2022-08-31T07:22:09.290Z,100141.06
2022-08-31T07:24:42.910Z,100145.88
2022-08-31T07:27:16.598Z,100140.84
2022-08-31T07:30:04.754Z,100148.28
2022-08-31T07:32:34.546Z,100138.72
2022-08-31T07:35:03.045Z,100145.84
2022-08-31T07:37:50.288Z,100140.72
2022-08-31T07:40:41.149Z,100142.50
2022-08-31T07:43:11.713Z,100142.81
2022-08-31T07:45:42.261Z,100144.88
2022-08-31T07:48:15.472Z,100132.91
2022-08-31T07:50:57.572Z,100137.72
2022-08-31T07:53:48.438Z,100139.34
2022-08-31T07:56:34.102Z,100142.63
2022-08-31T07:59:11.386Z,100138.09
2022-08-31T08:01:41.362Z,100142.41
2022-08-31T08:04:20.122Z,100144.19
2022-08-31T08:07:12.946Z,100136.19
2022-08-31T08:10:01.154Z,100141.56
2022-08-31T08:13:04.227Z,100145.19
2022-08-31T08:15:52.549Z,100144.94
2022-08-31T08:35:02.207Z,100129.06
2022-08-31T08:37:47.792Z,100131.94
2022-08-31T08:40:42.445Z,100129.09
2022-08-31T08:43:18.272Z,100127.13
2022-08-31T08:45:52.898Z,100132.63
2022-08-31T08:48:32.768Z,100121.66
2022-08-31T08:51:04.375Z,100120.44
2022-08-31T08:53:46.486Z,100124.06
2022-08-31T08:56:35.533Z,100119.56
2022-08-31T08:59:09.923Z,100119.13
2022-08-31T09:01:44.036Z,100120.88
2022-08-31T09:04:26.020Z,100115.13
2022-08-31T09:07:31.021Z,100108.50
2022-08-31T09:10:39.136Z,100107.06
2022-08-31T09:13:31.853Z,100108.84
2022-08-31T09:16:48.179Z,100104.78
2022-08-31T09:19:19.500Z,100109.19
2022-08-31T09:21:57.154Z,100101.91
2022-08-31T09:24:29.178Z,100100.03
2022-08-31T09:27:50.951Z,100093.66
2022-08-31T09:30:45.091Z,100097.28
2022-08-31T09:33:33.808Z,100090.47
2022-08-31T09:36:22.542Z,100093.16
2022-08-31T09:38:50.457Z,100090.81
2022-08-31T09:41:30.738Z,100085.22
2022-08-31T09:44:35.082Z,100087.66
2022-08-31T09:47:27.242Z,100082.88
2022-08-31T09:49:57.785Z,100071.91
2022-08-31T09:52:47.670Z,100073.16
2022-08-31T09:55:24.880Z,100072.72
2022-08-31T09:58:04.401Z,100078.28
2022-08-31T10:00:42.769Z,100067.00
2022-08-31T10:03:21.014Z,100060.13
2022-08-31T10:05:54.605Z,100053.72
2022-08-31T10:08:28.239Z,100054.34
2022-08-31T10:10:58.691Z,100054.06
2022-08-31T10:13:57.813Z,100048.25
2022-08-31T10:16:30.533Z,100044.91
2022-08-31T10:19:22.559Z,100041.25
2022-08-31T10:21:57.024Z,100046.13
2022-08-31T10:24:33.544Z,100039.25
2022-08-31T10:27:32.310Z,100037.91
2022-08-31T10:30:06.884Z,100031.44
2022-08-31T10:32:44.032Z,100026.56
2022-08-31T10:35:37.560Z,100028.41
2022-08-31T10:38:40.837Z,100020.00
2022-08-31T10:41:17.329Z,100010.94
2022-08-31T10:44:18.278Z,100018.00
2022-08-31T10:46:50.424Z,100008.50
2022-08-31T10:49:20.819Z,99999.28
2022-08-31T10:52:29.409Z,100006.00
2022-08-31T10:55:30.617Z,99994.81
2022-08-31T10:58:44.276Z,99985.19
2022-08-31T11:01:44.390Z,99985.69
2022-08-31T11:04:59.253Z,99985.88
2022-08-31T11:07:58.101Z,99988.00
2022-08-31T11:10:57.316Z,99994.97
2022-08-31T11:14:14.852Z,99985.41
2022-08-31T11:17:19.049Z,99983.97
2022-08-31T11:20:08.835Z,99977.41
2022-08-31T11:23:14.535Z,99990.50
2022-08-31T11:26:07.848Z,99984.88
2022-08-31T11:28:48.274Z,99984.28
2022-08-31T11:31:25.365Z,99980.09
2022-08-31T11:34:15.696Z,99979.38
2022-08-31T11:36:54.819Z,99981.00
2022-08-31T11:39:35.655Z,99984.81
2022-08-31T11:42:22.691Z,99981.97
2022-08-31T11:45:07.434Z,99971.88
2022-08-31T11:47:42.170Z,99980.09
2022-08-31T11:51:03.482Z,99962.44
2022-08-31T11:53:44.261Z,99968.31
2022-08-31T11:56:14.497Z,99962.78
2022-08-31T11:58:53.352Z,99958.31
2022-08-31T12:01:35.799Z,99962.16
2022-08-31T12:04:04.026Z,99956.81
2022-08-31T12:06:37.285Z,99955.16
2022-08-31T12:09:38.221Z,99948.94
2022-08-31T12:12:57.235Z,99938.75
2022-08-31T12:15:36.744Z,99938.63
2022-08-31T12:18:17.054Z,99944.31
2022-08-31T12:21:20.302Z,99940.31
2022-08-31T12:23:56.316Z,99934.47
2022-08-31T12:26:58.188Z,99922.09
2022-08-31T12:29:43.943Z,99923.69
2022-08-31T12:32:40.492Z,99923.84
2022-08-31T12:35:18.076Z,99922.25
2022-08-31T12:38:04.866Z,99917.13
2022-08-31T12:40:48.213Z,99911.47
2022-08-31T12:43:18.743Z,99911.81
2022-08-31T12:45:58.335Z,99909.56
2022-08-31T12:49:02.885Z,99912.53
2022-08-31T12:52:08.587Z,99912.66
2022-08-31T12:54:47.888Z,99903.13
2022-08-31T12:58:03.934Z,99906.69
2022-08-31T13:00:39.473Z,99902.84
2022-08-31T13:03:29.279Z,99897.56
2022-08-31T13:06:05.843Z,99902.13
2022-08-31T13:08:46.416Z,99901.44
2022-08-31T13:11:35.282Z,99896.09
2022-08-31T13:14:20.742Z,99896.81
2022-08-31T13:16:53.610Z,99898.31
2022-08-31T13:19:25.918Z,99899.44
2022-08-31T13:22:07.642Z,99894.47
2022-08-31T13:24:42.036Z,99890.03
2022-08-31T13:27:25.686Z,99890.16
2022-08-31T13:29:59.419Z,99880.16
2022-08-31T13:32:32.984Z,99893.50
2022-08-31T13:35:11.649Z,99885.97
2022-08-31T13:38:05.364Z,99906.09
2022-08-31T13:40:39.716Z,99909.97
2022-08-31T13:43:10.792Z,99910.44
2022-08-31T13:45:57.855Z,99898.16
2022-08-31T13:48:40.627Z,99900.00
2022-08-31T13:51:17.168Z,99886.78
2022-08-31T13:53:53.992Z,99895.06
2022-08-31T13:56:52.499Z,99889.50
2022-08-31T13:59:26.768Z,99879.50
2022-08-31T14:02:18.658Z,99882.25
2022-08-31T14:04:58.055Z,99883.16
2022-08-31T14:07:28.493Z,99884.38
2022-08-31T14:10:15.107Z,99890.56
2022-08-31T14:12:47.561Z,99885.28
2022-08-31T14:15:17.554Z,99885.53
2022-08-31T14:21:24.130Z,99885.59
2022-08-31T14:24:01.434Z,99892.56
2022-08-31T14:26:37.121Z,99883.06
2022-08-31T14:29:12.474Z,99884.25
2022-08-31T14:31:55.051Z,99877.50
2022-08-31T14:34:28.170Z,99871.28
2022-08-31T14:37:06.472Z,99859.81
2022-08-31T14:39:36.165Z,99865.34
2022-08-31T14:42:18.707Z,99860.94
2022-08-31T14:44:58.149Z,99857.84
2022-08-31T14:47:33.040Z,99863.03
2022-08-31T14:50:09.305Z,99853.00
2022-08-31T14:52:41.678Z,99858.94
2022-08-31T14:55:11.306Z,99864.75
2022-08-31T14:57:45.693Z,99855.19
2022-08-31T15:00:21.941Z,99852.34
2022-08-31T15:02:53.531Z,99850.81
2022-08-31T15:05:24.835Z,99856.31
2022-08-31T15:07:55.107Z,99859.03
2022-08-31T15:10:25.701Z,99861.13
2022-08-31T15:12:54.211Z,99867.22
2022-08-31T15:15:21.980Z,99874.81
2022-08-31T15:17:51.765Z,99870.78
2022-08-31T15:20:22.948Z,99861.75
2022-08-31T15:22:50.993Z,99864.75
2022-08-31T15:25:20.718Z,99859.91
2022-08-31T15:27:49.456Z,99861.88
2022-08-31T15:30:19.955Z,99854.03
2022-08-31T15:32:48.798Z,99858.34
2022-08-31T15:35:23.474Z,99869.16
2022-08-31T15:37:58.950Z,99862.38
2022-08-31T15:40:35.512Z,99854.56
2022-08-31T15:43:09.545Z,99855.31
2022-08-31T15:45:37.679Z,99864.16
2022-08-31T15:48:24.000Z,99859.34
2022-08-31T15:51:00.447Z,99843.38
2022-08-31T15:53:29.485Z,99850.91
2022-08-31T15:56:07.676Z,99853.00
2022-08-31T15:58:39.058Z,99848.25
2022-08-31T16:01:14.071Z,99844.03
2022-08-31T16:03:48.695Z,99842.50
2022-08-31T16:06:16.542Z,99843.28
2022-08-31T16:08:44.032Z,99850.88
2022-08-31T16:11:12.405Z,99844.81
2022-08-31T16:13:49.219Z,99840.78
2022-08-31T16:16:20.406Z,99845.56
2022-08-31T16:18:51.712Z,99842.53
2022-08-31T16:21:21.923Z,99840.75
2022-08-31T16:24:01.219Z,99839.25
2022-08-31T16:26:32.415Z,99838.97
2022-08-31T16:29:02.960Z,99836.38
2022-08-31T16:31:31.809Z,99824.50
2022-08-31T16:33:59.431Z,99829.31
2022-08-31T16:36:28.507Z,99832.47
2022-08-31T16:38:57.006Z,99825.56
2022-08-31T16:41:30.708Z,99825.66
2022-08-31T16:44:21.338Z,99837.91
2022-08-31T16:46:49.331Z,99829.50
2022-08-31T16:49:36.393Z,99829.50
2022-08-31T16:52:09.920Z,99829.66
2022-08-31T16:54:45.044Z,99829.59
2022-08-31T16:57:19.079Z,99830.66
2022-08-31T16:59:48.771Z,99826.63
2022-08-31T17:02:18.457Z,99818.94
2022-08-31T17:04:54.585Z,99824.63
2022-08-31T17:07:24.661Z,99828.47
2022-08-31T17:10:07.505Z,99831.78
2022-08-31T17:12:38.471Z,99831.22
2022-08-31T17:15:08.958Z,99832.81
2022-08-31T17:17:36.487Z,99836.19
2022-08-31T17:20:05.201Z,99832.63
2022-08-31T17:22:33.726Z,99847.16
2022-08-31T17:25:04.425Z,99847.66
2022-08-31T17:27:35.111Z,99844.13
2022-08-31T17:30:07.269Z,99841.22
2022-08-31T17:32:39.352Z,99846.25
2022-08-31T17:35:18.236Z,99850.63
2022-08-31T17:37:47.928Z,99852.94
2022-08-31T17:40:16.784Z,99872.91
2022-08-31T17:42:44.516Z,99868.28
2022-08-31T17:45:13.018Z,99864.28
2022-08-31T17:47:40.497Z,99862.13
2022-08-31T17:50:08.589Z,99865.66
2022-08-31T17:52:36.319Z,99870.69
2022-08-31T17:55:04.234Z,99874.06
2022-08-31T17:57:31.795Z,99867.38
2022-08-31T17:59:59.880Z,99870.56
2022-08-31T18:02:34.604Z,99871.31
2022-08-31T18:05:11.598Z,99878.94
2022-08-31T18:07:41.001Z,99883.50
2022-08-31T18:10:10.263Z,99877.25
2022-08-31T18:12:41.729Z,99876.28
2022-08-31T18:15:12.944Z,99884.03
2022-08-31T18:17:40.704Z,99883.56
2022-08-31T18:20:09.328Z,99900.50
2022-08-31T18:22:37.060Z,99909.94
2022-08-31T18:25:05.125Z,99921.50
2022-08-31T18:27:32.760Z,99925.16
2022-08-31T18:30:01.157Z,99933.53
2022-08-31T18:32:34.152Z,99935.66
2022-08-31T18:35:06.057Z,99938.84
2022-08-31T18:37:33.657Z,99939.28
2022-08-31T18:40:19.861Z,99935.78
2022-08-31T18:43:06.375Z,99942.78
2022-08-31T18:45:39.081Z,99954.56
2022-08-31T18:48:24.433Z,99946.75
2022-08-31T18:50:55.586Z,99949.50
2022-08-31T18:53:27.502Z,99949.16
2022-08-31T18:56:10.858Z,99943.06
2022-08-31T18:58:40.152Z,99940.00
2022-08-31T19:01:10.452Z,99934.75
2022-08-31T19:03:39.576Z,99931.06
2022-08-31T19:06:08.268Z,99920.66
2022-08-31T19:08:36.206Z,99932.06
2022-08-31T19:11:08.043Z,99938.31
2022-08-31T19:13:36.047Z,99925.03
2022-08-31T19:16:14.834Z,99926.72
2022-08-31T19:18:44.423Z,99917.28
2022-08-31T19:21:25.764Z,99918.03
2022-08-31T19:23:55.341Z,99915.72
2022-08-31T19:26:27.225Z,99915.09
2022-08-31T19:28:56.725Z,99924.53
2022-08-31T19:31:27.652Z,99924.78
2022-08-31T19:33:57.053Z,99912.38
2022-08-31T19:36:27.298Z,99910.06
2022-08-31T19:38:56.280Z,99905.47
2022-08-31T19:41:26.396Z,99904.06
2022-08-31T19:44:07.248Z,99894.88
2022-08-31T19:46:39.489Z,99894.25
2022-08-31T19:49:11.683Z,99896.63
2022-08-31T19:51:51.854Z,99898.31
2022-08-31T19:54:21.198Z,99889.09
2022-08-31T19:56:49.041Z,99893.50
2022-08-31T19:59:20.094Z,99887.72
2022-08-31T20:01:53.185Z,99880.38
2022-08-31T20:04:26.892Z,99871.34
2022-08-31T20:06:55.702Z,99872.25
2022-08-31T20:09:25.501Z,99873.03
2022-08-31T20:11:56.810Z,99869.16
2022-08-31T20:14:24.660Z,99866.13
2022-08-31T20:16:52.775Z,99864.25
2022-08-31T20:19:25.182Z,99860.00
2022-08-31T20:21:55.763Z,99859.69
2022-08-31T20:24:26.822Z,99855.84
2022-08-31T20:27:01.699Z,99862.84
2022-08-31T20:29:38.746Z,99852.00
2022-08-31T20:32:08.052Z,99848.59
2022-08-31T20:34:37.320Z,99848.59
2022-08-31T20:37:05.141Z,99841.94
2022-08-31T20:39:35.354Z,99844.66
2022-08-31T20:42:03.795Z,99846.66
2022-08-31T20:44:35.030Z,99847.09
2022-08-31T20:47:26.162Z,99848.59
2022-08-31T20:49:56.989Z,99836.88
2022-08-31T20:52:31.893Z,99830.66
2022-08-31T20:55:03.810Z,99836.13
2022-08-31T20:57:33.950Z,99833.03
2022-08-31T21:00:06.055Z,99836.56
2022-08-31T21:02:34.881Z,99831.09
2022-08-31T21:05:33.927Z,99824.38
2022-08-31T21:07:57.490Z,99821.31
2022-08-31T21:10:36.549Z,99817.78
2022-08-31T21:13:10.063Z,99821.09
2022-08-31T21:15:46.179Z,99813.75
2022-08-31T21:18:19.153Z,99814.63
2022-08-31T21:20:47.337Z,99813.75
2022-08-31T21:23:15.477Z,99812.88
2022-08-31T21:25:45.823Z,99813.50
2022-08-31T21:28:17.426Z,99804.88
2022-08-31T21:30:49.595Z,99812.97
2022-08-31T21:33:18.492Z,99807.81
2022-08-31T21:35:46.402Z,99795.34
2022-08-31T21:38:14.237Z,99795.03
2022-08-31T21:40:50.569Z,99798.97
2022-08-31T21:43:19.466Z,99793.13
2022-08-31T21:45:48.292Z,99788.09
2022-08-31T21:48:25.994Z,99794.91
2022-08-31T21:50:54.733Z,99804.91
2022-08-31T21:53:28.426Z,99799.84
2022-08-31T21:55:56.221Z,99806.09
2022-08-31T21:58:23.700Z,99802.16
2022-08-31T22:00:51.248Z,99801.72
2022-08-31T22:03:21.213Z,99798.19
2022-08-31T22:05:49.230Z,99789.97
2022-08-31T22:08:17.983Z,99786.34
2022-08-31T22:10:45.900Z,99777.69
2022-08-31T22:13:13.485Z,99778.56
2022-08-31T22:15:42.713Z,99782.84
2022-08-31T22:18:58.138Z,99777.38
2022-08-31T22:20:59.176Z,99776.94
2022-08-31T22:23:28.423Z,99770.66
2022-08-31T22:25:56.417Z,99771.44
2022-08-31T22:28:27.802Z,99774.63
2022-08-31T22:30:56.527Z,99778.13
2022-08-31T22:33:24.586Z,99782.84
2022-08-31T22:35:52.208Z,99785.16
2022-08-31T22:38:20.119Z,99785.91
2022-08-31T22:40:50.010Z,99783.06
2022-08-31T22:43:18.034Z,99795.56
2022-08-31T22:45:48.812Z,99789.19
2022-08-31T22:48:17.142Z,99783.63
2022-08-31T22:50:44.779Z,99795.22
2022-08-31T22:53:12.594Z,99792.03
2022-08-31T22:55:41.259Z,99791.72
2022-08-31T22:58:09.316Z,99793.03
2022-08-31T23:00:37.178Z,99790.06
2022-08-31T23:03:05.153Z,99798.97
2022-08-31T23:05:32.701Z,99794.50
2022-08-31T23:08:00.541Z,99800.09
2022-08-31T23:10:28.536Z,99797.44
2022-08-31T23:12:57.209Z,99800.66
2022-08-31T23:15:26.138Z,99802.72
2022-08-31T23:17:53.805Z,99798.56
2022-08-31T23:20:24.499Z,99801.88
2022-08-31T23:22:55.130Z,99802.78
2022-08-31T23:25:24.987Z,99806.06
2022-08-31T23:27:53.489Z,99802.66
2022-08-31T23:30:24.761Z,99800.34
2022-08-31T23:32:53.282Z,99805.94
2022-08-31T23:35:22.102Z,99806.94
2022-08-31T23:37:50.022Z,99799.25
2022-08-31T23:40:17.690Z,99801.31
2022-08-31T23:42:45.507Z,99800.56
2022-08-31T23:45:13.026Z,99796.72
2022-08-31T23:47:40.617Z,99798.69
2022-08-31T23:50:10.151Z,99792.44
2022-08-31T23:52:41.541Z,99786.09
2022-08-31T23:55:11.631Z,99786.00
2022-08-31T23:57:40.282Z,99784.06
